sensor_id;sensor_type;location;lat;lon;timestamp;P1;durP1;ratioP1;P2;durP2;ratioP2
12367;SDS011;6248;49.812;6.620;2023-04-24T00:02:13;0.63;;;0.63;;
12367;SDS011;6248;49.812;6.620;2023-04-24T00:04:41;0.50;;;0.50;;
12367;SDS011;6248;49.812;6.620;2023-04-24T00:07:09;0.90;;;0.63;;
12367;SDS011;6248;49.812;6.620;2023-04-24T00:09:38;0.93;;;0.90;;
12367;SDS011;6248;49.812;6.620;2023-04-24T00:12:05;0.90;;;0.70;;
12367;SDS011;6248;49.812;6.620;2023-04-24T00:14:33;1.47;;;0.80;;
12367;SDS011;6248;49.812;6.620;2023-04-24T00:17:00;0.70;;;0.70;;
12367;SDS011;6248;49.812;6.620;2023-04-24T00:19:29;0.80;;;0.80;;
12367;SDS011;6248;49.812;6.620;2023-04-24T00:21:57;0.90;;;0.90;;
12367;SDS011;6248;49.812;6.620;2023-04-24T00:24:24;0.93;;;0.80;;
12367;SDS011;6248;49.812;6.620;2023-04-24T00:26:52;1.23;;;0.90;;
12367;SDS011;6248;49.812;6.620;2023-04-24T00:29:19;1.00;;;1.00;;
12367;SDS011;6248;49.812;6.620;2023-04-24T00:31:48;3.50;;;0.90;;
12367;SDS011;6248;49.812;6.620;2023-04-24T00:34:15;1.37;;;1.03;;
12367;SDS011;6248;49.812;6.620;2023-04-24T00:36:44;1.10;;;1.00;;
12367;SDS011;6248;49.812;6.620;2023-04-24T00:39:14;1.10;;;1.10;;
12367;SDS011;6248;49.812;6.620;2023-04-24T00:41:41;1.20;;;1.10;;
12367;SDS011;6248;49.812;6.620;2023-04-24T00:44:09;1.50;;;1.33;;
12367;SDS011;6248;49.812;6.620;2023-04-24T00:46:36;2.03;;;1.40;;
12367;SDS011;6248;49.812;6.620;2023-04-24T00:49:04;1.33;;;1.30;;
12367;SDS011;6248;49.812;6.620;2023-04-24T00:51:31;1.37;;;1.20;;
12367;SDS011;6248;49.812;6.620;2023-04-24T00:54:01;1.43;;;1.20;;
12367;SDS011;6248;49.812;6.620;2023-04-24T00:56:28;1.93;;;1.47;;
12367;SDS011;6248;49.812;6.620;2023-04-24T00:58:56;1.70;;;1.60;;
12367;SDS011;6248;49.812;6.620;2023-04-24T01:01:23;3.23;;;1.40;;
12367;SDS011;6248;49.812;6.620;2023-04-24T01:03:51;2.10;;;2.00;;
12367;SDS011;6248;49.812;6.620;2023-04-24T01:06:18;2.13;;;2.00;;
12367;SDS011;6248;49.812;6.620;2023-04-24T01:08:45;2.60;;;1.90;;
12367;SDS011;6248;49.812;6.620;2023-04-24T01:11:15;2.13;;;1.80;;
12367;SDS011;6248;49.812;6.620;2023-04-24T01:13:42;2.17;;;2.00;;
12367;SDS011;6248;49.812;6.620;2023-04-24T01:16:10;2.57;;;2.20;;
12367;SDS011;6248;49.812;6.620;2023-04-24T01:18:37;2.40;;;2.20;;
12367;SDS011;6248;49.812;6.620;2023-04-24T01:21:06;2.43;;;2.23;;
12367;SDS011;6248;49.812;6.620;2023-04-24T01:23:36;2.53;;;2.13;;
12367;SDS011;6248;49.812;6.620;2023-04-24T01:26:04;2.70;;;2.50;;
12367;SDS011;6248;49.812;6.620;2023-04-24T01:28:31;2.50;;;2.30;;
12367;SDS011;6248;49.812;6.620;2023-04-24T01:30:59;3.47;;;2.60;;
12367;SDS011;6248;49.812;6.620;2023-04-24T01:33:26;2.60;;;2.40;;
12367;SDS011;6248;49.812;6.620;2023-04-24T01:35:54;3.93;;;2.50;;
12367;SDS011;6248;49.812;6.620;2023-04-24T01:38:21;3.37;;;2.60;;
12367;SDS011;6248;49.812;6.620;2023-04-24T01:40:50;2.60;;;2.40;;
12367;SDS011;6248;49.812;6.620;2023-04-24T01:43:17;3.63;;;2.20;;
12367;SDS011;6248;49.812;6.620;2023-04-24T01:45:45;2.80;;;2.50;;
12367;SDS011;6248;49.812;6.620;2023-04-24T01:48:12;4.30;;;2.70;;
12367;SDS011;6248;49.812;6.620;2023-04-24T01:50:40;2.80;;;2.60;;
12367;SDS011;6248;49.812;6.620;2023-04-24T01:53:07;3.23;;;2.50;;
12367;SDS011;6248;49.812;6.620;2023-04-24T01:55:35;2.50;;;2.30;;
12367;SDS011;6248;49.812;6.620;2023-04-24T01:58:03;2.97;;;2.67;;
12367;SDS011;6248;49.812;6.620;2023-04-24T02:00:30;2.60;;;2.40;;
12367;SDS011;6248;49.812;6.620;2023-04-24T02:02:58;3.60;;;2.83;;
12367;SDS011;6248;49.812;6.620;2023-04-24T02:05:26;3.10;;;2.80;;
12367;SDS011;6248;49.812;6.620;2023-04-24T02:07:54;3.40;;;2.90;;
12367;SDS011;6248;49.812;6.620;2023-04-24T02:10:21;4.83;;;3.00;;
12367;SDS011;6248;49.812;6.620;2023-04-24T02:12:50;2.77;;;2.57;;
12367;SDS011;6248;49.812;6.620;2023-04-24T02:15:19;3.50;;;3.20;;
12367;SDS011;6248;49.812;6.620;2023-04-24T02:17:46;4.50;;;3.20;;
12367;SDS011;6248;49.812;6.620;2023-04-24T02:20:13;4.30;;;3.40;;
12367;SDS011;6248;49.812;6.620;2023-04-24T02:22:42;3.63;;;3.23;;
12367;SDS011;6248;49.812;6.620;2023-04-24T02:25:10;3.97;;;3.50;;
12367;SDS011;6248;49.812;6.620;2023-04-24T02:27:37;4.63;;;3.77;;
12367;SDS011;6248;49.812;6.620;2023-04-24T02:30:05;5.43;;;3.77;;
12367;SDS011;6248;49.812;6.620;2023-04-24T02:32:33;4.43;;;3.87;;
12367;SDS011;6248;49.812;6.620;2023-04-24T02:35:01;4.73;;;3.97;;
12367;SDS011;6248;49.812;6.620;2023-04-24T02:37:28;5.43;;;4.27;;
12367;SDS011;6248;49.812;6.620;2023-04-24T02:39:55;3.90;;;3.60;;
12367;SDS011;6248;49.812;6.620;2023-04-24T02:42:22;4.97;;;4.47;;
12367;SDS011;6248;49.812;6.620;2023-04-24T02:44:50;5.03;;;4.53;;
12367;SDS011;6248;49.812;6.620;2023-04-24T02:47:17;5.93;;;4.37;;
12367;SDS011;6248;49.812;6.620;2023-04-24T02:49:46;5.63;;;4.90;;
12367;SDS011;6248;49.812;6.620;2023-04-24T02:52:13;6.97;;;4.67;;
12367;SDS011;6248;49.812;6.620;2023-04-24T02:54:41;6.20;;;4.67;;
12367;SDS011;6248;49.812;6.620;2023-04-24T02:57:09;4.40;;;4.00;;
12367;SDS011;6248;49.812;6.620;2023-04-24T02:59:36;6.70;;;4.80;;
12367;SDS011;6248;49.812;6.620;2023-04-24T03:02:04;5.63;;;4.93;;
12367;SDS011;6248;49.812;6.620;2023-04-24T03:04:31;5.57;;;4.83;;
12367;SDS011;6248;49.812;6.620;2023-04-24T03:07:00;5.03;;;4.63;;
12367;SDS011;6248;49.812;6.620;2023-04-24T03:09:27;5.33;;;4.93;;
12367;SDS011;6248;49.812;6.620;2023-04-24T03:11:55;5.70;;;5.20;;
12367;SDS011;6248;49.812;6.620;2023-04-24T03:14:23;5.63;;;4.90;;
12367;SDS011;6248;49.812;6.620;2023-04-24T03:16:50;5.40;;;5.00;;
12367;SDS011;6248;49.812;6.620;2023-04-24T03:19:17;6.83;;;4.60;;
12367;SDS011;6248;49.812;6.620;2023-04-24T03:21:45;6.23;;;5.63;;
12367;SDS011;6248;49.812;6.620;2023-04-24T03:24:14;6.73;;;6.13;;
12367;SDS011;6248;49.812;6.620;2023-04-24T03:26:41;6.20;;;5.60;;
12367;SDS011;6248;49.812;6.620;2023-04-24T03:29:09;6.07;;;5.23;;
12367;SDS011;6248;49.812;6.620;2023-04-24T03:31:36;5.90;;;5.30;;
12367;SDS011;6248;49.812;6.620;2023-04-24T03:34:03;6.17;;;5.33;;
12367;SDS011;6248;49.812;6.620;2023-04-24T03:36:30;5.90;;;5.37;;
12367;SDS011;6248;49.812;6.620;2023-04-24T03:38:58;6.90;;;6.20;;
12367;SDS011;6248;49.812;6.620;2023-04-24T03:41:26;5.83;;;5.23;;
12367;SDS011;6248;49.812;6.620;2023-04-24T03:43:55;7.87;;;7.07;;
12367;SDS011;6248;49.812;6.620;2023-04-24T03:46:22;7.77;;;6.97;;
12367;SDS011;6248;49.812;6.620;2023-04-24T03:48:49;7.83;;;6.13;;
12367;SDS011;6248;49.812;6.620;2023-04-24T03:51:17;7.40;;;6.60;;
12367;SDS011;6248;49.812;6.620;2023-04-24T03:53:44;7.93;;;7.13;;
12367;SDS011;6248;49.812;6.620;2023-04-24T03:56:11;7.57;;;6.80;;
12367;SDS011;6248;49.812;6.620;2023-04-24T03:58:40;6.77;;;6.17;;
12367;SDS011;6248;49.812;6.620;2023-04-24T04:01:07;7.90;;;7.07;;
12367;SDS011;6248;49.812;6.620;2023-04-24T04:03:35;7.00;;;6.37;;
12367;SDS011;6248;49.812;6.620;2023-04-24T04:06:02;8.97;;;6.73;;
12367;SDS011;6248;49.812;6.620;2023-04-24T04:08:30;8.43;;;7.60;;
12367;SDS011;6248;49.812;6.620;2023-04-24T04:10:57;9.00;;;7.27;;
12367;SDS011;6248;49.812;6.620;2023-04-24T04:13:24;8.03;;;7.23;;
12367;SDS011;6248;49.812;6.620;2023-04-24T04:15:53;7.97;;;7.17;;
12367;SDS011;6248;49.812;6.620;2023-04-24T04:18:21;8.30;;;7.43;;
12367;SDS011;6248;49.812;6.620;2023-04-24T04:20:48;8.77;;;7.90;;
12367;SDS011;6248;49.812;6.620;2023-04-24T04:23:16;8.53;;;7.60;;
12367;SDS011;6248;49.812;6.620;2023-04-24T04:25:43;10.37;;;8.07;;
12367;SDS011;6248;49.812;6.620;2023-04-24T04:28:12;7.60;;;6.87;;
12367;SDS011;6248;49.812;6.620;2023-04-24T04:30:40;9.60;;;8.57;;
12367;SDS011;6248;49.812;6.620;2023-04-24T04:33:09;9.27;;;7.77;;
12367;SDS011;6248;49.812;6.620;2023-04-24T04:35:37;8.90;;;8.03;;
12367;SDS011;6248;49.812;6.620;2023-04-24T04:38:04;9.93;;;8.87;;
12367;SDS011;6248;49.812;6.620;2023-04-24T04:40:33;9.33;;;8.00;;
12367;SDS011;6248;49.812;6.620;2023-04-24T04:43:01;9.47;;;8.50;;
12367;SDS011;6248;49.812;6.620;2023-04-24T04:45:29;10.20;;;8.60;;
12367;SDS011;6248;49.812;6.620;2023-04-24T04:47:57;13.37;;;8.67;;
12367;SDS011;6248;49.812;6.620;2023-04-24T04:50:27;9.93;;;8.90;;
12367;SDS011;6248;49.812;6.620;2023-04-24T04:52:55;11.67;;;9.93;;
12367;SDS011;6248;49.812;6.620;2023-04-24T04:55:22;10.57;;;9.47;;
12367;SDS011;6248;49.812;6.620;2023-04-24T04:57:50;10.43;;;9.33;;
12367;SDS011;6248;49.812;6.620;2023-04-24T05:00:17;11.00;;;9.77;;
12367;SDS011;6248;49.812;6.620;2023-04-24T05:02:46;9.77;;;8.80;;
12367;SDS011;6248;49.812;6.620;2023-04-24T05:05:13;9.20;;;8.37;;
12367;SDS011;6248;49.812;6.620;2023-04-24T05:07:43;8.50;;;7.80;;
12367;SDS011;6248;49.812;6.620;2023-04-24T05:10:10;8.33;;;7.47;;
12367;SDS011;6248;49.812;6.620;2023-04-24T05:12:38;7.90;;;7.20;;
12367;SDS011;6248;49.812;6.620;2023-04-24T05:15:05;7.90;;;7.20;;
12367;SDS011;6248;49.812;6.620;2023-04-24T05:17:32;9.13;;;7.60;;
12367;SDS011;6248;49.812;6.620;2023-04-24T05:20:00;7.30;;;6.70;;
12367;SDS011;6248;49.812;6.620;2023-04-24T05:22:28;7.63;;;6.93;;
12367;SDS011;6248;49.812;6.620;2023-04-24T05:24:57;7.10;;;6.43;;
12367;SDS011;6248;49.812;6.620;2023-04-24T05:27:24;7.67;;;6.57;;
12367;SDS011;6248;49.812;6.620;2023-04-24T05:29:51;7.67;;;6.90;;
12367;SDS011;6248;49.812;6.620;2023-04-24T05:32:19;6.23;;;5.63;;
12367;SDS011;6248;49.812;6.620;2023-04-24T05:34:46;6.97;;;6.27;;
12367;SDS011;6248;49.812;6.620;2023-04-24T05:37:13;6.17;;;5.40;;
12367;SDS011;6248;49.812;6.620;2023-04-24T05:39:41;6.53;;;5.13;;
12367;SDS011;6248;49.812;6.620;2023-04-24T05:42:09;5.83;;;5.10;;
12367;SDS011;6248;49.812;6.620;2023-04-24T05:44:37;5.53;;;5.03;;
12367;SDS011;6248;49.812;6.620;2023-04-24T05:47:04;5.63;;;5.13;;
12367;SDS011;6248;49.812;6.620;2023-04-24T05:49:33;5.60;;;5.00;;
12367;SDS011;6248;49.812;6.620;2023-04-24T05:52:00;5.87;;;4.93;;
12367;SDS011;6248;49.812;6.620;2023-04-24T05:54:29;5.30;;;4.90;;
12367;SDS011;6248;49.812;6.620;2023-04-24T05:56:56;5.47;;;4.97;;
12367;SDS011;6248;49.812;6.620;2023-04-24T05:59:25;5.20;;;4.70;;
12367;SDS011;6248;49.812;6.620;2023-04-24T06:01:52;5.17;;;4.77;;
12367;SDS011;6248;49.812;6.620;2023-04-24T06:04:20;6.13;;;4.73;;
12367;SDS011;6248;49.812;6.620;2023-04-24T06:06:48;5.20;;;4.70;;
12367;SDS011;6248;49.812;6.620;2023-04-24T06:09:20;5.37;;;4.87;;
12367;SDS011;6248;49.812;6.620;2023-04-24T06:11:48;5.37;;;4.90;;
12367;SDS011;6248;49.812;6.620;2023-04-24T06:14:17;5.50;;;5.00;;
12367;SDS011;6248;49.812;6.620;2023-04-24T06:16:46;5.90;;;4.63;;
12367;SDS011;6248;49.812;6.620;2023-04-24T06:19:14;4.80;;;4.40;;
12367;SDS011;6248;49.812;6.620;2023-04-24T06:21:41;5.67;;;5.03;;
12367;SDS011;6248;49.812;6.620;2023-04-24T06:24:08;5.57;;;4.70;;
12367;SDS011;6248;49.812;6.620;2023-04-24T06:26:36;4.93;;;4.50;;
12367;SDS011;6248;49.812;6.620;2023-04-24T06:29:04;5.40;;;4.90;;
12367;SDS011;6248;49.812;6.620;2023-04-24T06:31:32;4.73;;;4.33;;
12367;SDS011;6248;49.812;6.620;2023-04-24T06:34:03;5.23;;;4.73;;
12367;SDS011;6248;49.812;6.620;2023-04-24T06:36:31;5.83;;;4.80;;
12367;SDS011;6248;49.812;6.620;2023-04-24T06:38:59;5.07;;;4.67;;
12367;SDS011;6248;49.812;6.620;2023-04-24T06:41:27;5.17;;;4.67;;
12367;SDS011;6248;49.812;6.620;2023-04-24T06:43:55;6.03;;;5.27;;
12367;SDS011;6248;49.812;6.620;2023-04-24T06:46:22;5.67;;;5.13;;
12367;SDS011;6248;49.812;6.620;2023-04-24T06:48:51;6.73;;;6.13;;
12367;SDS011;6248;49.812;6.620;2023-04-24T06:51:22;5.70;;;5.20;;
12367;SDS011;6248;49.812;6.620;2023-04-24T06:53:51;6.67;;;5.67;;
12367;SDS011;6248;49.812;6.620;2023-04-24T06:56:18;5.83;;;5.30;;
12367;SDS011;6248;49.812;6.620;2023-04-24T06:58:46;6.00;;;5.50;;
12367;SDS011;6248;49.812;6.620;2023-04-24T07:01:13;6.27;;;5.53;;
12367;SDS011;6248;49.812;6.620;2023-04-24T07:03:41;6.27;;;5.67;;
12367;SDS011;6248;49.812;6.620;2023-04-24T07:06:08;6.43;;;5.20;;
12367;SDS011;6248;49.812;6.620;2023-04-24T07:08:38;6.93;;;5.20;;
12367;SDS011;6248;49.812;6.620;2023-04-24T07:11:06;6.00;;;5.40;;
12367;SDS011;6248;49.812;6.620;2023-04-24T07:13:34;5.87;;;5.37;;
12367;SDS011;6248;49.812;6.620;2023-04-24T07:16:01;5.70;;;5.20;;
12367;SDS011;6248;49.812;6.620;2023-04-24T07:18:29;6.13;;;5.63;;
12367;SDS011;6248;49.812;6.620;2023-04-24T07:20:56;6.87;;;5.40;;
12367;SDS011;6248;49.812;6.620;2023-04-24T07:23:24;6.10;;;5.57;;
12367;SDS011;6248;49.812;6.620;2023-04-24T07:25:54;6.20;;;5.60;;
12367;SDS011;6248;49.812;6.620;2023-04-24T07:28:22;6.10;;;5.50;;
12367;SDS011;6248;49.812;6.620;2023-04-24T07:30:50;6.47;;;5.97;;
12367;SDS011;6248;49.812;6.620;2023-04-24T07:33:20;6.43;;;5.83;;
12367;SDS011;6248;49.812;6.620;2023-04-24T07:35:48;7.47;;;5.83;;
12367;SDS011;6248;49.812;6.620;2023-04-24T07:38:15;6.23;;;5.63;;
12367;SDS011;6248;49.812;6.620;2023-04-24T07:40:45;6.13;;;5.53;;
12367;SDS011;6248;49.812;6.620;2023-04-24T07:43:15;6.20;;;5.63;;
12367;SDS011;6248;49.812;6.620;2023-04-24T07:45:42;6.83;;;6.10;;
12367;SDS011;6248;49.812;6.620;2023-04-24T07:48:09;6.73;;;5.30;;
12367;SDS011;6248;49.812;6.620;2023-04-24T07:50:40;6.77;;;5.70;;
12367;SDS011;6248;49.812;6.620;2023-04-24T07:53:07;8.13;;;5.40;;
12367;SDS011;6248;49.812;6.620;2023-04-24T07:55:35;7.03;;;5.77;;
12367;SDS011;6248;49.812;6.620;2023-04-24T07:58:03;6.33;;;5.73;;
12367;SDS011;6248;49.812;6.620;2023-04-24T08:00:33;6.20;;;5.60;;
12367;SDS011;6248;49.812;6.620;2023-04-24T08:03:00;5.70;;;5.20;;
12367;SDS011;6248;49.812;6.620;2023-04-24T08:05:27;7.27;;;6.20;;
12367;SDS011;6248;49.812;6.620;2023-04-24T08:07:55;7.87;;;6.27;;
12367;SDS011;6248;49.812;6.620;2023-04-24T08:10:22;7.27;;;6.10;;
12367;SDS011;6248;49.812;6.620;2023-04-24T08:12:50;6.53;;;6.00;;
12367;SDS011;6248;49.812;6.620;2023-04-24T08:15:18;6.70;;;5.93;;
12367;SDS011;6248;49.812;6.620;2023-04-24T08:17:47;6.43;;;5.83;;
12367;SDS011;6248;49.812;6.620;2023-04-24T08:20:14;9.63;;;5.90;;
12367;SDS011;6248;49.812;6.620;2023-04-24T08:22:42;16.30;;;12.63;;
12367;SDS011;6248;49.812;6.620;2023-04-24T08:25:12;6.70;;;6.10;;
12367;SDS011;6248;49.812;6.620;2023-04-24T08:27:40;6.30;;;5.70;;
12367;SDS011;6248;49.812;6.620;2023-04-24T08:30:07;6.27;;;5.50;;
12367;SDS011;6248;49.812;6.620;2023-04-24T08:32:35;6.40;;;5.77;;
12367;SDS011;6248;49.812;6.620;2023-04-24T08:35:05;6.70;;;5.90;;
12367;SDS011;6248;49.812;6.620;2023-04-24T08:37:34;7.03;;;6.10;;
12367;SDS011;6248;49.812;6.620;2023-04-24T08:40:02;6.30;;;5.80;;
12367;SDS011;6248;49.812;6.620;2023-04-24T08:42:33;6.90;;;5.90;;
12367;SDS011;6248;49.812;6.620;2023-04-24T08:45:00;6.83;;;5.53;;
12367;SDS011;6248;49.812;6.620;2023-04-24T08:47:29;8.33;;;5.67;;
12367;SDS011;6248;49.812;6.620;2023-04-24T08:49:58;7.10;;;6.27;;
12367;SDS011;6248;49.812;6.620;2023-04-24T08:52:29;7.47;;;6.00;;
12367;SDS011;6248;49.812;6.620;2023-04-24T08:54:57;6.07;;;5.47;;
12367;SDS011;6248;49.812;6.620;2023-04-24T08:57:25;5.97;;;5.10;;
12367;SDS011;6248;49.812;6.620;2023-04-24T08:59:53;6.23;;;5.47;;
12367;SDS011;6248;49.812;6.620;2023-04-24T09:02:21;5.33;;;4.83;;
12367;SDS011;6248;49.812;6.620;2023-04-24T09:04:50;5.10;;;4.47;;
12367;SDS011;6248;49.812;6.620;2023-04-24T09:07:18;5.10;;;4.70;;
12367;SDS011;6248;49.812;6.620;2023-04-24T09:09:48;5.83;;;4.57;;
12367;SDS011;6248;49.812;6.620;2023-04-24T09:12:17;5.33;;;4.83;;
12367;SDS011;6248;49.812;6.620;2023-04-24T09:14:45;7.63;;;5.27;;
12367;SDS011;6248;49.812;6.620;2023-04-24T09:17:13;5.37;;;4.87;;
12367;SDS011;6248;49.812;6.620;2023-04-24T09:19:41;5.77;;;5.27;;
12367;SDS011;6248;49.812;6.620;2023-04-24T09:22:09;5.77;;;5.27;;
12367;SDS011;6248;49.812;6.620;2023-04-24T09:24:38;6.43;;;5.80;;
12367;SDS011;6248;49.812;6.620;2023-04-24T09:27:07;5.87;;;5.37;;
12367;SDS011;6248;49.812;6.620;2023-04-24T09:29:49;6.70;;;5.70;;
12367;SDS011;6248;49.812;6.620;2023-04-24T09:32:20;5.63;;;5.00;;
12367;SDS011;6248;49.812;6.620;2023-04-24T09:35:04;6.10;;;5.57;;
12367;SDS011;6248;49.812;6.620;2023-04-24T09:37:34;6.20;;;5.20;;
12367;SDS011;6248;49.812;6.620;2023-04-24T09:40:10;6.13;;;5.53;;
12367;SDS011;6248;49.812;6.620;2023-04-24T09:42:39;7.07;;;5.27;;
12367;SDS011;6248;49.812;6.620;2023-04-24T09:45:10;6.33;;;5.43;;
12367;SDS011;6248;49.812;6.620;2023-04-24T09:47:37;5.73;;;5.07;;
12367;SDS011;6248;49.812;6.620;2023-04-24T09:50:12;5.50;;;4.40;;
12367;SDS011;6248;49.812;6.620;2023-04-24T09:52:44;5.50;;;5.00;;
12367;SDS011;6248;49.812;6.620;2023-04-24T09:55:13;5.13;;;4.73;;
12367;SDS011;6248;49.812;6.620;2023-04-24T09:57:50;5.27;;;4.53;;
12367;SDS011;6248;49.812;6.620;2023-04-24T10:00:21;5.63;;;5.13;;
12367;SDS011;6248;49.812;6.620;2023-04-24T10:02:50;5.70;;;5.17;;
12367;SDS011;6248;49.812;6.620;2023-04-24T10:05:18;5.93;;;5.20;;
12367;SDS011;6248;49.812;6.620;2023-04-24T10:07:45;5.77;;;5.23;;
12367;SDS011;6248;49.812;6.620;2023-04-24T10:10:13;5.60;;;5.07;;
12367;SDS011;6248;49.812;6.620;2023-04-24T10:12:40;6.23;;;5.23;;
12367;SDS011;6248;49.812;6.620;2023-04-24T10:15:11;5.63;;;4.60;;
12367;SDS011;6248;49.812;6.620;2023-04-24T10:17:39;5.20;;;4.70;;
12367;SDS011;6248;49.812;6.620;2023-04-24T10:20:07;6.03;;;5.23;;
12367;SDS011;6248;49.812;6.620;2023-04-24T10:22:35;5.00;;;4.60;;
12367;SDS011;6248;49.812;6.620;2023-04-24T10:25:04;6.17;;;4.23;;
12367;SDS011;6248;49.812;6.620;2023-04-24T10:27:32;5.67;;;4.50;;
12367;SDS011;6248;49.812;6.620;2023-04-24T10:29:59;4.53;;;4.13;;
12367;SDS011;6248;49.812;6.620;2023-04-24T10:32:28;5.67;;;4.20;;
12367;SDS011;6248;49.812;6.620;2023-04-24T10:34:55;5.23;;;4.40;;
12367;SDS011;6248;49.812;6.620;2023-04-24T10:37:23;5.47;;;4.50;;
12367;SDS011;6248;49.812;6.620;2023-04-24T10:39:50;6.47;;;4.27;;
12367;SDS011;6248;49.812;6.620;2023-04-24T10:42:19;4.40;;;3.67;;
12367;SDS011;6248;49.812;6.620;2023-04-24T10:44:47;4.10;;;3.80;;
12367;SDS011;6248;49.812;6.620;2023-04-24T10:47:15;4.33;;;3.90;;
12367;SDS011;6248;49.812;6.620;2023-04-24T10:49:44;3.90;;;3.33;;
12367;SDS011;6248;49.812;6.620;2023-04-24T10:52:11;4.63;;;3.83;;
12367;SDS011;6248;49.812;6.620;2023-04-24T10:54:41;4.33;;;3.93;;
12367;SDS011;6248;49.812;6.620;2023-04-24T10:57:28;4.20;;;3.80;;
12367;SDS011;6248;49.812;6.620;2023-04-24T11:00:19;5.10;;;3.70;;
12367;SDS011;6248;49.812;6.620;2023-04-24T11:02:47;5.00;;;3.77;;
12367;SDS011;6248;49.812;6.620;2023-04-24T11:05:17;4.63;;;3.93;;
12367;SDS011;6248;49.812;6.620;2023-04-24T11:10:30;4.73;;;3.90;;
12367;SDS011;6248;49.812;6.620;2023-04-24T11:12:57;5.87;;;5.13;;
12367;SDS011;6248;49.812;6.620;2023-04-24T11:15:25;6.80;;;4.80;;
12367;SDS011;6248;49.812;6.620;2023-04-24T11:17:52;4.20;;;3.80;;
12367;SDS011;6248;49.812;6.620;2023-04-24T11:20:24;4.23;;;3.80;;
12367;SDS011;6248;49.812;6.620;2023-04-24T11:22:52;4.83;;;3.40;;
12367;SDS011;6248;49.812;6.620;2023-04-24T11:25:20;3.63;;;3.30;;
12367;SDS011;6248;49.812;6.620;2023-04-24T11:27:48;4.77;;;3.57;;
12367;SDS011;6248;49.812;6.620;2023-04-24T11:30:16;6.13;;;3.93;;
12367;SDS011;6248;49.812;6.620;2023-04-24T11:32:47;5.77;;;3.50;;
12367;SDS011;6248;49.812;6.620;2023-04-24T11:35:15;4.47;;;3.73;;
12367;SDS011;6248;49.812;6.620;2023-04-24T11:37:45;5.17;;;3.70;;
12367;SDS011;6248;49.812;6.620;2023-04-24T11:40:14;4.37;;;3.83;;
12367;SDS011;6248;49.812;6.620;2023-04-24T11:42:42;5.13;;;3.30;;
12367;SDS011;6248;49.812;6.620;2023-04-24T11:45:10;5.43;;;4.03;;
12367;SDS011;6248;49.812;6.620;2023-04-24T11:47:38;3.77;;;3.47;;
12367;SDS011;6248;49.812;6.620;2023-04-24T11:50:07;4.27;;;3.83;;
12367;SDS011;6248;49.812;6.620;2023-04-24T11:52:36;6.80;;;3.90;;
12367;SDS011;6248;49.812;6.620;2023-04-24T11:55:06;5.57;;;4.23;;
12367;SDS011;6248;49.812;6.620;2023-04-24T11:57:34;5.63;;;4.03;;
12367;SDS011;6248;49.812;6.620;2023-04-24T12:00:02;5.60;;;3.70;;
12367;SDS011;6248;49.812;6.620;2023-04-24T12:02:30;4.20;;;3.80;;
12367;SDS011;6248;49.812;6.620;2023-04-24T12:04:58;4.70;;;3.83;;
12367;SDS011;6248;49.812;6.620;2023-04-24T12:07:25;6.23;;;4.20;;
12367;SDS011;6248;49.812;6.620;2023-04-24T12:09:55;6.47;;;3.63;;
12367;SDS011;6248;49.812;6.620;2023-04-24T12:12:26;5.03;;;4.57;;
12367;SDS011;6248;49.812;6.620;2023-04-24T12:14:54;5.20;;;4.13;;
12367;SDS011;6248;49.812;6.620;2023-04-24T12:17:25;4.63;;;4.13;;
12367;SDS011;6248;49.812;6.620;2023-04-24T12:19:56;6.07;;;4.27;;
12367;SDS011;6248;49.812;6.620;2023-04-24T12:22:24;6.97;;;5.97;;
12367;SDS011;6248;49.812;6.620;2023-04-24T12:25:01;6.27;;;5.50;;
12367;SDS011;6248;49.812;6.620;2023-04-24T12:27:31;5.20;;;4.70;;
12367;SDS011;6248;49.812;6.620;2023-04-24T12:29:59;5.43;;;4.93;;
12367;SDS011;6248;49.812;6.620;2023-04-24T12:32:27;6.60;;;5.93;;
12367;SDS011;6248;49.812;6.620;2023-04-24T12:34:54;7.00;;;5.40;;
12367;SDS011;6248;49.812;6.620;2023-04-24T12:37:22;4.90;;;4.40;;
12367;SDS011;6248;49.812;6.620;2023-04-24T12:40:00;5.33;;;4.83;;
12367;SDS011;6248;49.812;6.620;2023-04-24T12:42:28;4.93;;;4.47;;
12367;SDS011;6248;49.812;6.620;2023-04-24T12:45:01;8.13;;;4.60;;
12367;SDS011;6248;49.812;6.620;2023-04-24T12:47:30;4.70;;;4.20;;
12367;SDS011;6248;49.812;6.620;2023-04-24T12:49:57;4.63;;;4.10;;
12367;SDS011;6248;49.812;6.620;2023-04-24T12:52:25;6.13;;;4.40;;
12367;SDS011;6248;49.812;6.620;2023-04-24T12:54:52;4.50;;;3.90;;
12367;SDS011;6248;49.812;6.620;2023-04-24T12:57:20;4.90;;;4.40;;
12367;SDS011;6248;49.812;6.620;2023-04-24T12:59:47;5.23;;;4.50;;
12367;SDS011;6248;49.812;6.620;2023-04-24T13:02:17;4.77;;;4.27;;
12367;SDS011;6248;49.812;6.620;2023-04-24T13:04:44;4.97;;;4.27;;
12367;SDS011;6248;49.812;6.620;2023-04-24T13:07:12;5.87;;;4.70;;
12367;SDS011;6248;49.812;6.620;2023-04-24T13:09:39;6.53;;;4.40;;
12367;SDS011;6248;49.812;6.620;2023-04-24T13:12:07;5.37;;;4.50;;
12367;SDS011;6248;49.812;6.620;2023-04-24T13:14:35;5.20;;;4.20;;
12367;SDS011;6248;49.812;6.620;2023-04-24T13:17:02;7.40;;;4.60;;
12367;SDS011;6248;49.812;6.620;2023-04-24T13:19:34;4.83;;;4.40;;
12367;SDS011;6248;49.812;6.620;2023-04-24T13:22:02;5.43;;;4.40;;
12367;SDS011;6248;49.812;6.620;2023-04-24T13:24:30;4.37;;;3.80;;
12367;SDS011;6248;49.812;6.620;2023-04-24T13:26:57;6.40;;;4.90;;
12367;SDS011;6248;49.812;6.620;2023-04-24T13:29:25;4.73;;;4.33;;
12367;SDS011;6248;49.812;6.620;2023-04-24T13:31:53;5.10;;;4.70;;
12367;SDS011;6248;49.812;6.620;2023-04-24T13:34:21;5.37;;;4.63;;
12367;SDS011;6248;49.812;6.620;2023-04-24T13:36:50;5.30;;;4.30;;
12367;SDS011;6248;49.812;6.620;2023-04-24T13:39:18;6.93;;;4.30;;
12367;SDS011;6248;49.812;6.620;2023-04-24T13:41:45;5.67;;;4.47;;
12367;SDS011;6248;49.812;6.620;2023-04-24T13:44:13;5.23;;;4.47;;
12367;SDS011;6248;49.812;6.620;2023-04-24T13:46:41;5.93;;;4.03;;
12367;SDS011;6248;49.812;6.620;2023-04-24T13:49:10;5.53;;;4.30;;
12367;SDS011;6248;49.812;6.620;2023-04-24T13:51:38;6.88;;;4.80;;
12367;SDS011;6248;49.812;6.620;2023-04-24T13:54:07;4.35;;;3.97;;
12367;SDS011;6248;49.812;6.620;2023-04-24T13:56:34;5.38;;;4.10;;
12367;SDS011;6248;49.812;6.620;2023-04-24T13:59:02;5.20;;;4.40;;
12367;SDS011;6248;49.812;6.620;2023-04-24T14:01:29;4.93;;;4.15;;
12367;SDS011;6248;49.812;6.620;2023-04-24T14:03:57;6.20;;;3.92;;
12367;SDS011;6248;49.812;6.620;2023-04-24T14:06:25;5.10;;;4.60;;
12367;SDS011;6248;49.812;6.620;2023-04-24T14:08:52;6.38;;;4.07;;
12367;SDS011;6248;49.812;6.620;2023-04-24T14:11:20;4.40;;;4.00;;
12367;SDS011;6248;49.812;6.620;2023-04-24T14:13:49;4.55;;;3.90;;
12367;SDS011;6248;49.812;6.620;2023-04-24T14:16:17;4.38;;;3.90;;
12367;SDS011;6248;49.812;6.620;2023-04-24T14:18:45;4.57;;;4.18;;
12367;SDS011;6248;49.812;6.620;2023-04-24T14:21:12;6.10;;;4.30;;
12367;SDS011;6248;49.812;6.620;2023-04-24T14:23:39;6.22;;;4.05;;
12367;SDS011;6248;49.812;6.620;2023-04-24T14:26:06;6.70;;;4.22;;
12367;SDS011;6248;49.812;6.620;2023-04-24T14:28:35;6.47;;;5.13;;
12367;SDS011;6248;49.812;6.620;2023-04-24T14:31:03;5.50;;;5.00;;
12367;SDS011;6248;49.812;6.620;2023-04-24T14:33:30;5.53;;;4.93;;
12367;SDS011;6248;49.812;6.620;2023-04-24T14:35:58;5.88;;;4.72;;
12367;SDS011;6248;49.812;6.620;2023-04-24T14:38:27;4.10;;;3.70;;
12367;SDS011;6248;49.812;6.620;2023-04-24T14:40:55;5.20;;;4.70;;
12367;SDS011;6248;49.812;6.620;2023-04-24T14:43:22;4.25;;;3.95;;
12367;SDS011;6248;49.812;6.620;2023-04-24T14:45:51;5.67;;;4.70;;
12367;SDS011;6248;49.812;6.620;2023-04-24T14:48:18;4.27;;;3.87;;
12367;SDS011;6248;49.812;6.620;2023-04-24T14:50:46;4.47;;;3.83;;
12367;SDS011;6248;49.812;6.620;2023-04-24T14:53:14;8.07;;;5.07;;
12367;SDS011;6248;49.812;6.620;2023-04-24T14:55:41;6.10;;;5.50;;
12367;SDS011;6248;49.812;6.620;2023-04-24T14:58:08;7.80;;;6.07;;
12367;SDS011;6248;49.812;6.620;2023-04-24T15:00:36;5.63;;;5.13;;
12367;SDS011;6248;49.812;6.620;2023-04-24T15:03:05;5.60;;;5.10;;
12367;SDS011;6248;49.812;6.620;2023-04-24T15:05:33;6.67;;;5.33;;
12367;SDS011;6248;49.812;6.620;2023-04-24T15:08:00;4.70;;;4.30;;
12367;SDS011;6248;49.812;6.620;2023-04-24T15:10:28;6.00;;;5.40;;